Time,TemperatureF,DewpointF,PressureIn,WindDirection,WindDirectionDegrees,WindSpeedMPH,WindSpeedGustMPH,Humidity,HourlyPrecipIn,Conditions,Clouds,dailyrainin,SoftwareType,DateUTC
2013-03-29 00:00:00,39.4,31.1,30.26,ENE,68,0.0,0.0,72,0.00,CLR,,0.00,WeatherDisplay:10.37,2013-03-29 04:00:00,
2013-03-29 00:05:00,39.2,30.6,30.26,ENE,68,0.0,0.0,71,0.00,CLR,,0.00,WeatherDisplay:10.37,2013-03-29 04:05:00,
2013-03-29 00:10:00,39.2,30.6,30.26,ENE,68,0.0,0.0,71,0.00,CLR,,0.00,WeatherDisplay:10.37,2013-03-29 04:10:00,
2013-03-29 00:15:00,39.0,30.4,30.26,ENE,68,0.0,0.0,71,0.00,CLR,,0.00,WeatherDisplay:10.37,2013-03-29 04:15:00,
2013-03-29 00:20:00,38.7,30.1,30.26,ENE,68,0.0,0.0,71,0.00,CLR,,0.00,WeatherDisplay:10.37,2013-03-29 04:20:00,
2013-03-29 00:25:00,38.1,29.5,30.26,ENE,68,0.0,0.0,71,0.00,CLR,,0.00,WeatherDisplay:10.37,2013-03-29 04:25:00,
2013-03-29 00:30:00,38.1,29.5,30.27,ENE,68,0.0,0.0,71,0.00,CLR,,0.00,WeatherDisplay:10.37,2013-03-29 04:30:00,
2013-03-29 00:35:00,38.1,29.5,30.27,ENE,68,0.0,0.0,71,0.00,CLR,,0.00,WeatherDisplay:10.37,2013-03-29 04:35:00,
2013-03-29 00:40:00,37.8,29.6,30.27,ENE,68,0.0,0.0,72,0.00,CLR,,0.00,WeatherDisplay:10.37,2013-03-29 04:40:00,
2013-03-29 00:45:00,37.4,29.2,30.27,ENE,68,0.0,0.0,72,0.00,CLR,,0.00,WeatherDisplay:10.37,2013-03-29 04:45:00,
2013-03-29 00:50:00,37.2,29.0,30.27,ENE,68,0.0,0.0,72,0.00,CLR,,0.00,WeatherDisplay:10.37,2013-03-29 04:50:00,
2013-03-29 00:55:00,37.2,29.3,30.27,ENE,68,0.0,0.0,73,0.00,CLR,,0.00,WeatherDisplay:10.37,2013-03-29 04:55:00,
2013-03-29 01:00:00,37.0,29.1,30.27,ENE,68,0.0,0.0,73,0.00,CLR,,0.00,WeatherDisplay:10.37,2013-03-29 05:00:00,
2013-03-29 01:05:00,37.0,29.1,30.27,ENE,68,0.0,0.0,73,0.00,CLR,,0.00,WeatherDisplay:10.37,2013-03-29 05:05:00,
2013-03-29 01:10:00,37.0,29.5,30.27,ENE,68,0.0,0.0,74,0.00,CLR,,0.00,WeatherDisplay:10.37,2013-03-29 05:10:00,
2013-03-29 01:15:00,36.9,29.7,30.27,ENE,68,0.0,0.0,75,0.00,CLR,,0.00,WeatherDisplay:10.37,2013-03-29 05:15:00,
2013-03-29 01:20:00,36.9,29.7,30.27,ENE,68,0.0,0.0,75,0.00,CLR,,0.00,WeatherDisplay:10.37,2013-03-29 05:20:00,
2013-03-29 01:25:00,37.2,29.7,30.27,ENE,68,0.0,0.0,74,0.00,CLR,,0.00,WeatherDisplay:10.37,2013-03-29 05:25:00,
2013-03-29 01:30:00,37.2,30.7,30.28,ENE,68,0.0,0.0,77,0.00,CLR,,0.00,WeatherDisplay:10.37,2013-03-29 05:30:00,
2013-03-29 01:35:00,37.2,31.0,30.28,ENE,68,0.0,0.0,78,0.00,CLR,,0.00,WeatherDisplay:10.37,2013-03-29 05:35:00,
2013-03-29 01:40:00,37.2,31.0,30.28,ENE,68,0.0,0.0,78,0.00,CLR,,0.00,WeatherDisplay:10.37,2013-03-29 05:40:00,
2013-03-29 01:45:00,37.4,30.2,30.28,ENE,68,0.0,0.0,75,0.00,CLR,,0.00,WeatherDisplay:10.37,2013-03-29 05:45:00,
2013-03-29 01:50:00,37.8,30.6,30.28,ENE,68,0.0,0.0,75,0.00,CLR,,0.00,WeatherDisplay:10.37,2013-03-29 05:50:00,
2013-03-29 01:55:00,38.1,30.2,30.28,ENE,68,0.0,0.0,73,0.00,CLR,,0.00,WeatherDisplay:10.37,2013-03-29 05:55:00,
2013-03-29 02:00:00,38.5,30.3,30.28,ENE,68,0.0,0.0,72,0.00,CLR,,0.00,WeatherDisplay:10.37,2013-03-29 06:00:00,
2013-03-29 02:05:00,38.7,29.8,30.28,ENE,68,0.0,0.0,70,0.00,CLR,,0.00,WeatherDisplay:10.37,2013-03-29 06:05:00,
2013-03-29 02:10:00,38.8,29.8,30.28,ENE,68,0.0,0.0,70,0.00,CLR,,0.00,WeatherDisplay:10.37,2013-03-29 06:10:00,
2013-03-29 02:16:00,38.8,29.8,30.28,ENE,68,0.0,0.0,70,0.00,CLR,,0.00,WeatherDisplay:10.37,2013-03-29 06:16:00,
2013-03-29 02:21:00,39.0,29.7,30.28,ENE,68,0.0,0.0,69,0.00,CLR,,0.00,WeatherDisplay:10.37,2013-03-29 06:21:00,
2013-03-29 02:26:00,38.8,29.5,30.28,ENE,68,0.0,0.0,69,0.00,CLR,,0.00,WeatherDisplay:10.37,2013-03-29 06:26:00,
2013-03-29 02:31:00,38.8,29.5,30.28,ENE,68,0.0,0.0,69,0.00,CLR,,0.00,WeatherDisplay:10.37,2013-03-29 06:31:00,
2013-03-29 02:36:00,39.2,29.5,30.28,ENE,68,0.0,0.0,68,0.00,CLR,,0.00,WeatherDisplay:10.37,2013-03-29 06:36:00,
2013-03-29 02:41:00,39.4,29.7,30.28,ENE,68,0.0,0.0,68,0.00,CLR,,0.00,WeatherDisplay:10.37,2013-03-29 06:41:00,
2013-03-29 02:46:00,39.2,29.5,30.28,ENE,68,0.0,0.0,68,0.00,CLR,,0.00,WeatherDisplay:10.37,2013-03-29 06:46:00,
2013-03-29 02:51:00,39.4,29.7,30.28,ENE,68,0.0,0.0,68,0.00,CLR,,0.00,WeatherDisplay:10.37,2013-03-29 06:51:00,
2013-03-29 02:56:00,39.2,29.5,30.28,ENE,68,0.0,0.0,68,0.00,CLR,,0.00,WeatherDisplay:10.37,2013-03-29 06:56:00,
2013-03-29 03:01:00,39.2,29.5,30.28,ENE,67,0.0,-999.0,68,-99.99,,,0.00,Acu-Link.com,2013-03-29 07:01:00,
2013-03-29 03:06:00,39.0,29.3,30.28,ENE,68,0.0,0.0,68,0.00,CLR,,0.00,WeatherDisplay:10.37,2013-03-29 07:06:00,
2013-03-29 03:11:00,39.0,29.7,30.28,ENE,68,0.0,0.0,69,0.00,CLR,,0.00,WeatherDisplay:10.37,2013-03-29 07:11:00,
2013-03-29 03:16:00,38.8,29.5,30.27,ENE,68,0.0,0.0,69,0.00,CLR,,0.00,WeatherDisplay:10.37,2013-03-29 07:16:00,
2013-03-29 03:22:00,38.5,29.2,30.27,ENE,68,0.0,0.0,69,0.00,CLR,,0.00,WeatherDisplay:10.37,2013-03-29 07:22:00,
2013-03-29 03:27:00,38.3,29.4,30.27,ENE,68,0.0,0.0,70,0.00,CLR,,0.00,WeatherDisplay:10.37,2013-03-29 07:27:00,
2013-03-29 03:32:00,38.3,29.0,30.27,South,180,2.3,2.3,69,0.00,CLR,,0.00,WeatherDisplay:10.37,2013-03-29 07:32:00,
2013-03-29 03:37:00,38.7,29.0,30.27,SSE,158,0.0,0.0,68,0.00,CLR,,0.00,WeatherDisplay:10.37,2013-03-29 07:37:00,
2013-03-29 03:42:00,38.7,28.7,30.27,SE,135,0.0,0.0,67,0.00,CLR,,0.00,WeatherDisplay:10.37,2013-03-29 07:42:00,
2013-03-29 03:47:00,38.7,28.7,30.27,SE,135,0.0,0.0,67,0.00,CLR,,0.00,WeatherDisplay:10.37,2013-03-29 07:47:00,
2013-03-29 03:52:00,38.7,28.7,30.27,SE,135,0.0,0.0,67,0.00,CLR,,0.00,WeatherDisplay:10.37,2013-03-29 07:52:00,
2013-03-29 03:57:00,38.7,28.7,30.27,SE,135,0.0,0.0,67,0.00,CLR,,0.00,WeatherDisplay:10.37,2013-03-29 07:57:00,
2013-03-29 04:02:00,38.7,28.7,30.27,SE,135,0.0,0.0,67,0.00,CLR,,0.00,WeatherDisplay:10.37,2013-03-29 08:02:00,
2013-03-29 04:07:00,38.5,28.5,30.27,SE,135,0.0,0.0,67,0.00,CLR,,0.00,WeatherDisplay:10.37,2013-03-29 08:07:00,
2013-03-29 04:12:00,38.5,28.5,30.27,SE,135,0.0,0.0,67,0.00,CLR,,0.00,WeatherDisplay:10.37,2013-03-29 08:12:00,
2013-03-29 04:17:00,38.3,28.3,30.27,ESE,112,0.0,0.0,67,0.00,CLR,,0.00,WeatherDisplay:10.37,2013-03-29 08:17:00,
2013-03-29 04:22:00,38.3,28.3,30.27,ESE,112,0.0,0.0,67,0.00,CLR,,0.00,WeatherDisplay:10.37,2013-03-29 08:22:00,
2013-03-29 04:27:00,38.3,28.3,30.27,ESE,112,0.0,0.0,67,0.00,CLR,,0.00,WeatherDisplay:10.37,2013-03-29 08:27:00,
2013-03-29 04:32:00,38.1,28.5,30.27,ESE,112,0.0,0.0,68,0.00,CLR,,0.00,WeatherDisplay:10.37,2013-03-29 08:32:00,
2013-03-29 04:37:00,37.8,28.9,30.27,SSE,158,0.0,0.0,70,0.00,CLR,,0.00,WeatherDisplay:10.37,2013-03-29 08:37:00,
2013-03-29 04:42:00,37.4,29.2,30.27,SSE,158,0.0,0.0,72,0.00,CLR,,0.00,WeatherDisplay:10.37,2013-03-29 08:42:00,
2013-03-29 04:47:00,37.0,29.1,30.27,SSE,158,0.0,0.0,73,0.00,CLR,,0.00,WeatherDisplay:10.37,2013-03-29 08:47:00,
2013-03-29 04:52:00,36.7,28.5,30.27,SSE,158,0.0,0.0,72,0.00,CLR,,0.00,WeatherDisplay:10.37,2013-03-29 08:52:00,
2013-03-29 04:57:00,36.5,28.3,30.27,SSE,158,0.0,0.0,72,0.00,CLR,,0.00,WeatherDisplay:10.37,2013-03-29 08:57:00,
2013-03-29 05:03:00,36.5,28.7,30.27,SSE,158,0.0,0.0,73,0.00,CLR,,0.00,WeatherDisplay:10.37,2013-03-29 09:03:00,
2013-03-29 05:08:00,36.5,28.7,30.27,SSE,158,0.0,0.0,73,0.00,CLR,,0.00,WeatherDisplay:10.37,2013-03-29 09:08:00,
2013-03-29 05:13:00,36.1,28.3,30.27,SSE,158,0.0,0.0,73,0.00,CLR,,0.00,WeatherDisplay:10.37,2013-03-29 09:13:00,
2013-03-29 05:18:00,36.0,28.2,30.27,SSE,158,0.0,0.0,73,0.00,CLR,,0.00,WeatherDisplay:10.37,2013-03-29 09:18:00,
2013-03-29 05:23:00,36.0,28.2,30.27,SSE,158,0.0,0.0,73,0.00,CLR,,0.00,WeatherDisplay:10.37,2013-03-29 09:23:00,
2013-03-29 05:28:00,35.8,28.0,30.28,SSE,158,0.0,0.0,73,0.00,CLR,,0.00,WeatherDisplay:10.37,2013-03-29 09:28:00,
2013-03-29 05:33:00,35.6,28.1,30.28,SSE,158,0.0,0.0,74,0.00,CLR,,0.00,WeatherDisplay:10.37,2013-03-29 09:33:00,
2013-03-29 05:38:00,35.4,27.9,30.28,SSE,158,0.0,0.0,74,0.00,CLR,,0.00,WeatherDisplay:10.37,2013-03-29 09:38:00,
2013-03-29 05:43:00,35.4,27.9,30.28,SSE,158,0.0,0.0,74,0.00,CLR,,0.00,WeatherDisplay:10.37,2013-03-29 09:43:00,
2013-03-29 05:48:00,35.4,28.3,30.28,SSE,158,0.0,0.0,75,0.00,CLR,,0.00,WeatherDisplay:10.37,2013-03-29 09:48:00,
2013-03-29 05:53:00,35.4,28.6,30.28,SSE,158,0.0,0.0,76,0.00,CLR,,0.00,WeatherDisplay:10.37,2013-03-29 09:53:00,
2013-03-29 05:58:00,35.4,28.6,30.28,SSE,158,0.0,0.0,76,0.00,CLR,,0.00,WeatherDisplay:10.37,2013-03-29 09:58:00,
2013-03-29 06:03:00,35.2,28.4,30.29,ESE,112,0.0,0.0,76,0.00,CLR,,0.00,WeatherDisplay:10.37,2013-03-29 10:03:00,
2013-03-29 06:08:00,35.2,28.1,30.29,ESE,112,0.0,0.0,75,0.00,CLR,,0.00,WeatherDisplay:10.37,2013-03-29 10:08:00,
2013-03-29 06:13:00,35.4,27.9,30.29,SE,135,0.0,0.0,74,0.00,CLR,,0.00,WeatherDisplay:10.37,2013-03-29 10:13:00,
2013-03-29 06:18:00,35.6,28.1,30.29,SE,135,0.0,0.0,74,0.00,CLR,,0.00,WeatherDisplay:10.37,2013-03-29 10:18:00,
2013-03-29 06:23:00,36.0,28.2,30.29,SE,135,0.0,0.0,73,0.00,CLR,,0.00,WeatherDisplay:10.37,2013-03-29 10:23:00,
2013-03-29 06:28:00,35.8,29.0,30.30,SE,135,0.0,0.0,76,0.00,CLR,,0.00,WeatherDisplay:10.37,2013-03-29 10:28:00,
2013-03-29 06:33:00,35.6,29.1,30.30,SE,135,0.0,0.0,77,0.00,CLR,,0.00,WeatherDisplay:10.37,2013-03-29 10:33:00,
2013-03-29 06:38:00,35.4,28.6,30.30,SSE,158,0.0,0.0,76,0.00,CLR,,0.00,WeatherDisplay:10.37,2013-03-29 10:38:00,
2013-03-29 06:43:00,35.4,28.9,30.30,SSE,158,0.0,0.0,77,0.00,CLR,,0.00,WeatherDisplay:10.37,2013-03-29 10:43:00,
2013-03-29 06:48:00,35.1,28.9,30.29,SSE,157,0.0,-999.0,78,-99.99,,,0.00,Acu-Link.com,2013-03-29 10:48:00,
2013-03-29 06:53:00,34.9,28.7,30.30,SSE,158,0.0,0.0,78,0.00,CLR,,0.00,WeatherDisplay:10.37,2013-03-29 10:53:00,
2013-03-29 06:58:00,34.7,28.5,30.30,SSE,158,0.0,0.0,78,0.00,CLR,,0.00,WeatherDisplay:10.37,2013-03-29 10:58:00,
2013-03-29 07:03:00,34.5,28.0,30.29,SSE,157,0.0,-999.0,77,-99.99,,,0.00,Acu-Link.com,2013-03-29 11:03:00,
2013-03-29 07:08:00,34.2,28.1,30.31,SSE,158,0.0,0.0,78,0.00,CLR,,0.00,WeatherDisplay:10.37,2013-03-29 11:08:00,
2013-03-29 07:13:00,34.2,28.1,30.31,SSE,158,0.0,0.0,78,0.00,CLR,,0.00,WeatherDisplay:10.37,2013-03-29 11:13:00,
2013-03-29 07:18:00,34.0,27.9,30.31,SSE,158,0.0,0.0,78,0.00,CLR,,0.00,WeatherDisplay:10.37,2013-03-29 11:18:00,
2013-03-29 07:23:00,34.2,28.4,30.31,SSE,158,0.0,0.0,79,0.00,CLR,,0.00,WeatherDisplay:10.37,2013-03-29 11:23:00,
2013-03-29 07:28:00,34.2,28.4,30.31,SSE,158,0.0,0.0,79,0.00,CLR,,0.00,WeatherDisplay:10.37,2013-03-29 11:28:00,
2013-03-29 07:33:00,34.3,28.8,30.31,SSE,158,0.0,0.0,80,0.00,CLR,,0.00,WeatherDisplay:10.37,2013-03-29 11:33:00,
2013-03-29 07:38:00,34.3,28.5,30.31,SSE,158,0.0,0.0,79,0.00,CLR,,0.00,WeatherDisplay:10.37,2013-03-29 11:38:00,
2013-03-29 07:43:00,34.5,28.7,30.31,SSE,158,0.0,0.0,79,0.00,CLR,,0.00,WeatherDisplay:10.37,2013-03-29 11:43:00,
2013-03-29 07:48:00,34.9,29.0,30.31,SSE,158,0.0,0.0,79,0.00,CLR,,0.00,WeatherDisplay:10.37,2013-03-29 11:48:00,
2013-03-29 07:53:00,35.4,29.5,30.32,SSE,158,0.0,0.0,79,0.00,CLR,,0.00,WeatherDisplay:10.37,2013-03-29 11:53:00,
2013-03-29 07:58:00,36.1,29.9,30.32,SSE,158,0.0,0.0,78,0.00,CLR,,0.00,WeatherDisplay:10.37,2013-03-29 11:58:00,
2013-03-29 08:03:00,37.0,30.5,30.32,SSE,158,0.0,0.0,77,0.00,CLR,,0.00,WeatherDisplay:10.37,2013-03-29 12:03:00,
2013-03-29 08:08:00,37.9,30.7,30.32,SSE,158,0.0,0.0,75,0.00,CLR,,0.00,WeatherDisplay:10.37,2013-03-29 12:08:00,
2013-03-29 08:14:00,39.2,31.3,30.32,SSE,158,0.0,0.0,73,0.00,CLR,,0.00,WeatherDisplay:10.37,2013-03-29 12:14:00,
2013-03-29 08:19:00,39.9,31.3,30.32,SSE,158,0.0,0.0,71,0.00,CLR,,0.00,WeatherDisplay:10.37,2013-03-29 12:19:00,
2013-03-29 08:24:00,40.6,31.2,30.32,South,180,0.0,0.0,69,0.00,CLR,,0.00,WeatherDisplay:10.37,2013-03-29 12:24:00,
2013-03-29 08:29:00,41.4,31.3,30.32,SSE,158,0.0,0.0,67,0.00,CLR,,0.00,WeatherDisplay:10.37,2013-03-29 12:29:00,
2013-03-29 08:34:00,42.4,31.8,30.32,NNE,22,0.0,0.0,66,0.00,CLR,,0.00,WeatherDisplay:10.37,2013-03-29 12:34:00,
2013-03-29 08:39:00,43.0,31.3,30.32,NE,45,3.5,0.0,63,0.00,CLR,,0.00,WeatherDisplay:10.37,2013-03-29 12:39:00,
2013-03-29 08:44:00,43.5,32.1,30.32,ENE,68,0.0,0.0,64,0.00,CLR,,0.00,WeatherDisplay:10.37,2013-03-29 12:44:00,
2013-03-29 08:49:00,44.1,32.3,30.32,ENE,68,2.3,2.3,63,0.00,CLR,,0.00,WeatherDisplay:10.37,2013-03-29 12:49:00,
2013-03-29 08:54:00,44.8,30.9,30.32,ESE,112,4.6,4.6,58,0.00,CLR,,0.00,WeatherDisplay:10.37,2013-03-29 12:54:00,
2013-03-29 08:59:00,45.7,31.3,30.32,North,360,4.3,4.3,57,0.00,CLR,,0.00,WeatherDisplay:10.37,2013-03-29 12:59:00,
2013-03-29 09:04:00,46.0,30.7,30.33,East,90,6.9,6.9,55,0.00,CLR,,0.00,WeatherDisplay:10.37,2013-03-29 13:04:00,
2013-03-29 09:09:00,46.0,30.7,30.33,South,180,2.3,2.3,55,0.00,CLR,,0.00,WeatherDisplay:10.37,2013-03-29 13:09:00,
2013-03-29 09:14:00,46.2,30.9,30.33,SSW,202,3.5,3.5,55,0.00,CLR,,0.00,WeatherDisplay:10.37,2013-03-29 13:14:00,
2013-03-29 09:19:00,46.6,30.8,30.33,ESE,112,0.0,0.0,54,0.00,CLR,,0.00,WeatherDisplay:10.37,2013-03-29 13:19:00,
2013-03-29 09:24:00,47.3,31.0,30.33,East,90,4.6,0.0,53,0.00,CLR,,0.00,WeatherDisplay:10.37,2013-03-29 13:24:00,
2013-03-29 09:29:00,47.8,30.5,30.33,SSW,202,2.3,2.3,51,0.00,CLR,,0.00,WeatherDisplay:10.37,2013-03-29 13:29:00,
2013-03-29 09:34:00,48.4,30.6,30.33,SW,225,3.5,3.5,50,0.00,CLR,,0.00,WeatherDisplay:10.37,2013-03-29 13:34:00,
2013-03-29 09:39:00,49.3,30.4,30.33,SSW,202,4.6,4.6,48,0.00,CLR,,0.00,WeatherDisplay:10.37,2013-03-29 13:39:00,
2013-03-29 09:44:00,49.8,29.8,30.33,NW,315,4.6,4.6,46,0.00,CLR,,0.00,WeatherDisplay:10.37,2013-03-29 13:44:00,
2013-03-29 09:49:00,50.5,29.9,30.33,ESE,112,3.5,0.0,45,0.00,CLR,,0.00,WeatherDisplay:10.37,2013-03-29 13:49:00,
2013-03-29 09:54:00,50.9,29.2,30.33,NNW,338,4.6,4.6,43,0.00,CLR,,0.00,WeatherDisplay:10.37,2013-03-29 13:54:00,
2013-03-29 09:59:00,51.3,29.5,30.33,WSW,248,3.5,3.5,43,0.00,CLR,,0.00,WeatherDisplay:10.37,2013-03-29 13:59:00,
2013-03-29 10:04:00,50.5,28.2,30.33,SSW,202,6.9,6.9,42,0.00,CLR,,0.00,WeatherDisplay:10.37,2013-03-29 14:04:00,
2013-03-29 10:09:00,51.8,28.8,30.33,North,360,3.5,3.9,41,0.00,CLR,,0.00,WeatherDisplay:10.37,2013-03-29 14:09:00,
2013-03-29 10:14:00,52.0,28.4,30.33,East,90,6.9,6.9,40,0.00,CLR,,0.00,WeatherDisplay:10.37,2013-03-29 14:14:00,
2013-03-29 10:19:00,51.8,28.2,30.33,SW,225,5.8,5.8,40,0.00,CLR,,0.00,WeatherDisplay:10.37,2013-03-29 14:19:00,
2013-03-29 10:24:00,52.3,28.7,30.33,ENE,68,8.1,8.1,40,0.00,CLR,,0.00,WeatherDisplay:10.37,2013-03-29 14:24:00,
2013-03-29 10:29:00,53.4,29.0,30.33,ESE,112,7.4,7.4,39,0.00,CLR,,0.00,WeatherDisplay:10.37,2013-03-29 14:29:00,
2013-03-29 10:35:00,53.6,28.6,30.33,WNW,292,11.5,11.5,38,0.00,CLR,,0.00,WeatherDisplay:10.37,2013-03-29 14:35:00,
2013-03-29 10:40:00,53.4,28.4,30.33,SW,225,6.9,6.9,38,0.00,CLR,,0.00,WeatherDisplay:10.37,2013-03-29 14:40:00,
2013-03-29 10:45:00,54.0,28.3,30.33,ESE,112,6.4,6.4,37,0.00,CLR,,0.00,WeatherDisplay:10.37,2013-03-29 14:45:00,
2013-03-29 10:50:00,54.3,29.2,30.33,ENE,68,5.4,5.4,38,0.00,CLR,,0.00,WeatherDisplay:10.37,2013-03-29 14:50:00,
2013-03-29 10:55:00,54.7,27.6,30.33,NE,45,5.8,5.8,35,0.00,CLR,,0.00,WeatherDisplay:10.37,2013-03-29 14:55:00,
2013-03-29 11:00:00,54.5,27.4,30.33,NNE,22,5.8,5.8,35,0.00,CLR,,0.00,WeatherDisplay:10.37,2013-03-29 15:00:00,
2013-03-29 11:05:00,56.1,27.4,30.32,SSW,202,6.4,6.4,33,0.00,CLR,,0.00,WeatherDisplay:10.37,2013-03-29 15:05:00,
2013-03-29 11:10:00,54.7,26.8,30.32,South,180,5.8,5.8,34,0.00,CLR,,0.00,WeatherDisplay:10.37,2013-03-29 15:10:00,
2013-03-29 11:15:00,55.0,27.1,30.32,ESE,112,4.6,4.6,34,0.00,CLR,,0.00,WeatherDisplay:10.37,2013-03-29 15:15:00,
2013-03-29 11:20:00,55.2,25.8,30.32,East,90,6.9,6.9,32,0.00,CLR,,0.00,WeatherDisplay:10.37,2013-03-29 15:20:00,
2013-03-29 11:25:00,55.0,25.6,30.32,NNE,22,5.4,5.4,32,0.00,CLR,,0.00,WeatherDisplay:10.37,2013-03-29 15:25:00,
2013-03-29 11:30:00,56.1,26.6,30.31,SW,225,5.8,5.8,32,0.00,CLR,,0.00,WeatherDisplay:10.37,2013-03-29 15:30:00,
2013-03-29 11:35:00,55.2,25.1,30.31,WSW,248,4.6,4.6,31,0.00,CLR,,0.00,WeatherDisplay:10.37,2013-03-29 15:35:00,
2013-03-29 11:40:00,59.4,26.2,30.31,SE,135,7.4,7.4,28,0.00,CLR,,0.00,WeatherDisplay:10.37,2013-03-29 15:40:00,
2013-03-29 11:45:00,59.9,25.8,30.31,WSW,248,5.8,5.8,27,0.00,CLR,,0.00,WeatherDisplay:10.37,2013-03-29 15:45:00,
2013-03-29 11:50:00,55.8,25.6,30.31,ESE,112,16.1,16.1,31,0.00,CLR,,0.00,WeatherDisplay:10.37,2013-03-29 15:50:00,
2013-03-29 11:55:00,55.4,24.4,30.30,SSW,202,6.9,6.9,30,0.00,CLR,,0.00,WeatherDisplay:10.37,2013-03-29 15:55:00,
2013-03-29 12:00:00,56.1,25.8,30.30,ESE,112,8.1,8.4,31,0.00,CLR,,0.00,WeatherDisplay:10.37,2013-03-29 16:00:00,
2013-03-29 12:05:00,56.8,26.5,30.30,WSW,248,6.9,6.9,31,0.00,CLR,,0.00,WeatherDisplay:10.37,2013-03-29 16:05:00,
2013-03-29 12:10:00,57.0,25.8,30.30,SE,135,6.9,6.9,30,0.00,CLR,,0.00,WeatherDisplay:10.37,2013-03-29 16:10:00,
2013-03-29 12:15:00,57.9,26.6,30.30,WSW,248,6.9,6.9,30,0.00,CLR,,0.00,WeatherDisplay:10.37,2013-03-29 16:15:00,
2013-03-29 12:20:00,57.2,26.8,30.30,SSE,158,6.9,6.9,31,0.00,CLR,,0.00,WeatherDisplay:10.37,2013-03-29 16:20:00,
2013-03-29 12:25:00,58.3,27.0,30.30,ESE,112,7.4,7.4,30,0.00,CLR,,0.00,WeatherDisplay:10.37,2013-03-29 16:25:00,
2013-03-29 12:30:00,57.9,25.8,30.29,East,90,8.4,8.4,29,0.00,CLR,,0.00,WeatherDisplay:10.37,2013-03-29 16:30:00,
2013-03-29 12:35:00,57.7,25.6,30.29,East,90,3.5,3.5,29,0.00,CLR,,0.00,WeatherDisplay:10.37,2013-03-29 16:35:00,
2013-03-29 12:40:00,58.3,25.3,30.28,WSW,248,5.8,5.8,28,0.00,CLR,,0.00,WeatherDisplay:10.37,2013-03-29 16:40:00,
2013-03-29 12:45:00,58.6,24.7,30.28,East,90,9.2,9.2,27,0.00,CLR,,0.00,WeatherDisplay:10.37,2013-03-29 16:45:00,
2013-03-29 12:50:00,58.5,26.3,30.28,WSW,248,5.4,5.4,29,0.00,CLR,,0.00,WeatherDisplay:10.37,2013-03-29 16:50:00,
2013-03-29 12:55:00,59.2,24.3,30.28,ESE,112,5.8,5.8,26,0.00,CLR,,0.00,WeatherDisplay:10.37,2013-03-29 16:55:00,
2013-03-29 13:00:00,59.0,24.1,30.28,WSW,248,6.9,6.9,26,0.00,CLR,,0.00,WeatherDisplay:10.37,2013-03-29 17:00:00,
2013-03-29 13:05:00,58.5,26.3,30.28,NE,45,9.5,9.5,29,0.00,CLR,,0.00,WeatherDisplay:10.37,2013-03-29 17:05:00,
2013-03-29 13:10:00,59.5,24.5,30.28,WSW,248,8.1,8.1,26,0.00,CLR,,0.00,WeatherDisplay:10.37,2013-03-29 17:10:00,
2013-03-29 13:15:00,60.3,24.3,30.28,South,180,5.8,5.8,25,0.00,CLR,,0.00,WeatherDisplay:10.37,2013-03-29 17:15:00,
2013-03-29 13:20:00,59.5,25.5,30.28,ENE,68,4.6,4.6,27,0.00,CLR,,0.00,WeatherDisplay:10.37,2013-03-29 17:20:00,
2013-03-29 13:25:00,59.7,25.6,30.28,East,90,4.6,4.6,27,0.00,CLR,,0.00,WeatherDisplay:10.37,2013-03-29 17:25:00,
2013-03-29 13:30:00,58.6,25.6,30.27,ESE,112,4.6,4.6,28,0.00,CLR,,0.00,WeatherDisplay:10.37,2013-03-29 17:30:00,
2013-03-29 13:35:00,59.5,23.6,30.27,WNW,292,2.3,0.0,25,0.00,CLR,,0.00,WeatherDisplay:10.37,2013-03-29 17:35:00,
2013-03-29 13:40:00,58.8,33.2,30.26,ESE,112,4.3,4.3,38,0.00,CLR,,0.00,WeatherDisplay:10.37,2013-03-29 17:40:00,
2013-03-29 13:45:00,58.5,32.3,30.26,SW,225,4.6,4.6,37,0.00,CLR,,0.00,WeatherDisplay:10.37,2013-03-29 17:45:00,
2013-03-29 13:50:00,57.4,31.3,30.26,West,270,3.5,3.5,37,0.00,CLR,,0.00,WeatherDisplay:10.37,2013-03-29 17:50:00,
2013-03-29 13:55:00,57.6,31.5,30.26,WSW,248,9.5,9.5,37,0.00,CLR,,0.00,WeatherDisplay:10.37,2013-03-29 17:55:00,
2013-03-29 14:00:00,57.6,32.8,30.26,WSW,248,5.8,5.8,39,0.00,CLR,,0.00,WeatherDisplay:10.37,2013-03-29 18:00:00,
2013-03-29 14:05:00,57.2,33.1,30.25,WSW,248,7.4,7.4,40,0.00,CLR,,0.00,WeatherDisplay:10.37,2013-03-29 18:05:00,
2013-03-29 14:10:00,57.6,32.8,30.25,SW,225,6.9,6.9,39,0.00,CLR,,0.00,WeatherDisplay:10.37,2013-03-29 18:10:00,
2013-03-29 14:15:00,57.4,33.3,30.25,WSW,248,9.2,9.2,40,0.00,CLR,,0.00,WeatherDisplay:10.37,2013-03-29 18:15:00,
2013-03-29 14:20:00,58.1,33.9,30.25,SW,225,8.1,8.1,40,0.00,CLR,,0.00,WeatherDisplay:10.37,2013-03-29 18:20:00,
2013-03-29 14:25:00,58.6,35.0,30.25,ESE,112,5.8,5.8,41,0.00,CLR,,0.00,WeatherDisplay:10.37,2013-03-29 18:25:00,
2013-03-29 14:30:00,58.5,34.2,30.24,WSW,248,6.9,7.4,40,0.00,CLR,,0.00,WeatherDisplay:10.37,2013-03-29 18:30:00,
2013-03-29 14:35:00,57.2,34.3,30.24,SW,225,6.9,6.9,42,0.00,CLR,,0.00,WeatherDisplay:10.37,2013-03-29 18:35:00,
2013-03-29 14:40:00,57.2,33.1,30.24,West,270,8.1,8.1,40,0.00,CLR,,0.00,WeatherDisplay:10.37,2013-03-29 18:40:00,
2013-03-29 14:45:00,56.8,33.3,30.24,WSW,248,8.1,8.1,41,0.00,CLR,,0.00,WeatherDisplay:10.37,2013-03-29 18:45:00,
2013-03-29 14:50:00,58.1,33.9,30.24,SW,225,7.4,7.4,40,0.00,CLR,,0.00,WeatherDisplay:10.37,2013-03-29 18:50:00,
2013-03-29 14:55:00,55.4,32.1,30.24,SW,225,7.4,7.4,41,0.00,CLR,,0.00,WeatherDisplay:10.37,2013-03-29 18:55:00,
2013-03-29 15:01:00,56.3,33.5,30.24,West,270,8.1,8.1,42,0.00,CLR,,0.00,WeatherDisplay:10.37,2013-03-29 19:01:00,
2013-03-29 15:05:00,57.6,34.1,30.24,SW,225,6.9,6.9,41,0.00,CLR,,0.00,WeatherDisplay:10.37,2013-03-29 19:05:00,
2013-03-29 15:11:00,56.7,32.6,30.24,WSW,248,6.9,7.0,40,0.00,CLR,,0.00,WeatherDisplay:10.37,2013-03-29 19:11:00,
2013-03-29 15:16:00,56.8,35.1,30.23,SSE,158,5.8,5.8,44,0.00,CLR,,0.00,WeatherDisplay:10.37,2013-03-29 19:16:00,
2013-03-29 15:21:00,56.3,34.6,30.23,SW,225,8.1,8.1,44,0.00,CLR,,0.00,WeatherDisplay:10.37,2013-03-29 19:21:00,
2013-03-29 15:26:00,57.2,36.0,30.23,WSW,248,5.8,5.8,45,0.00,CLR,,0.00,WeatherDisplay:10.37,2013-03-29 19:26:00,
2013-03-29 15:31:00,58.6,35.0,30.23,SW,225,9.2,9.2,41,0.00,CLR,,0.00,WeatherDisplay:10.37,2013-03-29 19:31:00,
2013-03-29 15:36:00,57.7,35.9,30.23,WSW,248,5.8,5.8,44,0.00,CLR,,0.00,WeatherDisplay:10.37,2013-03-29 19:36:00,
2013-03-29 15:41:00,56.3,34.6,30.23,SW,225,7.4,7.4,44,0.00,CLR,,0.00,WeatherDisplay:10.37,2013-03-29 19:41:00,
2013-03-29 15:46:00,58.5,34.2,30.23,SW,225,8.1,8.1,40,0.00,CLR,,0.00,WeatherDisplay:10.37,2013-03-29 19:46:00,
2013-03-29 15:51:00,57.4,33.9,30.23,WSW,248,6.9,6.9,41,0.00,CLR,,0.00,WeatherDisplay:10.37,2013-03-29 19:51:00,
2013-03-29 15:57:00,57.7,35.9,30.23,SW,225,7.4,7.4,44,0.00,CLR,,0.00,WeatherDisplay:10.37,2013-03-29 19:57:00,
2013-03-29 16:02:00,55.6,34.6,30.23,West,270,8.4,8.4,45,0.00,CLR,,0.00,WeatherDisplay:10.37,2013-03-29 20:02:00,
2013-03-29 16:07:00,56.1,33.9,30.23,SW,225,8.1,8.1,43,0.00,CLR,,0.00,WeatherDisplay:10.37,2013-03-29 20:07:00,
2013-03-29 16:12:00,55.6,33.4,30.23,SW,225,9.5,9.5,43,0.00,CLR,,0.00,WeatherDisplay:10.37,2013-03-29 20:12:00,
2013-03-29 16:17:00,55.9,33.7,30.22,SW,225,6.9,6.9,43,0.00,CLR,,0.00,WeatherDisplay:10.37,2013-03-29 20:17:00,
2013-03-29 16:23:00,56.1,32.7,30.22,WSW,248,8.1,8.1,41,0.00,CLR,,0.00,WeatherDisplay:10.37,2013-03-29 20:23:00,
2013-03-29 16:28:00,57.2,33.1,30.23,SW,225,9.2,9.2,40,0.00,CLR,,0.00,WeatherDisplay:10.37,2013-03-29 20:28:00,
2013-03-29 16:33:00,58.6,33.7,30.23,WSW,248,8.4,8.4,39,0.00,CLR,,0.00,WeatherDisplay:10.37,2013-03-29 20:33:00,
2013-03-29 16:38:00,58.6,34.3,30.23,WSW,248,8.4,8.4,40,0.00,CLR,,0.00,WeatherDisplay:10.37,2013-03-29 20:38:00,
2013-03-29 16:43:00,57.7,35.3,30.22,SW,225,6.9,6.9,43,0.00,CLR,,0.00,WeatherDisplay:10.37,2013-03-29 20:43:00,
2013-03-29 16:48:00,56.1,33.9,30.22,WSW,248,8.1,8.1,43,0.00,CLR,,0.00,WeatherDisplay:10.37,2013-03-29 20:48:00,
2013-03-29 16:53:00,58.5,36.1,30.22,WSW,248,5.8,5.8,43,0.00,CLR,,0.00,WeatherDisplay:10.37,2013-03-29 20:53:00,
2013-03-29 16:58:00,58.8,33.9,30.22,ESE,112,5.8,5.8,39,0.00,CLR,,0.00,WeatherDisplay:10.37,2013-03-29 20:58:00,
2013-03-29 17:03:00,58.1,34.5,30.21,WSW,248,8.4,8.4,41,0.00,CLR,,0.00,WeatherDisplay:10.37,2013-03-29 21:03:00,
2013-03-29 17:08:00,57.4,34.5,30.21,WSW,248,7.4,7.4,42,0.00,CLR,,0.00,WeatherDisplay:10.37,2013-03-29 21:08:00,
2013-03-29 17:13:00,56.8,35.1,30.21,WSW,248,6.4,6.4,44,0.00,CLR,,0.00,WeatherDisplay:10.37,2013-03-29 21:13:00,
2013-03-29 17:18:00,56.3,35.8,30.22,WSW,248,5.8,5.8,46,0.00,CLR,,0.00,WeatherDisplay:10.37,2013-03-29 21:18:00,
2013-03-29 17:23:00,55.9,35.9,30.22,WSW,248,7.4,7.4,47,0.00,CLR,,0.00,WeatherDisplay:10.37,2013-03-29 21:23:00,
2013-03-29 17:28:00,55.8,34.8,30.22,WSW,248,6.9,6.9,45,0.00,CLR,,0.00,WeatherDisplay:10.37,2013-03-29 21:28:00,
2013-03-29 17:33:00,55.2,34.8,30.22,SW,225,6.9,6.9,46,0.00,CLR,,0.00,WeatherDisplay:10.37,2013-03-29 21:33:00,
2013-03-29 17:38:00,55.2,36.4,30.23,West,270,8.4,8.4,49,0.00,CLR,,0.00,WeatherDisplay:10.37,2013-03-29 21:38:00,
2013-03-29 17:43:00,55.2,35.8,30.23,SW,225,5.4,5.4,48,0.00,CLR,,0.00,WeatherDisplay:10.37,2013-03-29 21:43:00,
2013-03-29 17:48:00,54.9,35.6,30.23,SW,225,7.4,7.4,48,0.00,CLR,,0.00,WeatherDisplay:10.37,2013-03-29 21:48:00,
2013-03-29 17:53:00,54.3,35.5,30.22,WSW,248,6.9,6.9,49,0.00,CLR,,0.00,WeatherDisplay:10.37,2013-03-29 21:53:00,
2013-03-29 17:58:00,54.1,35.9,30.22,SW,225,6.9,6.9,50,0.00,CLR,,0.00,WeatherDisplay:10.37,2013-03-29 21:58:00,
2013-03-29 18:03:00,53.6,35.9,30.23,WSW,248,6.4,6.4,51,0.00,CLR,,0.00,WeatherDisplay:10.37,2013-03-29 22:03:00,
2013-03-29 18:08:00,53.2,36.0,30.23,WSW,248,6.9,6.9,52,0.00,CLR,,0.00,WeatherDisplay:10.37,2013-03-29 22:08:00,
2013-03-29 18:13:00,53.1,36.4,30.23,WSW,248,6.9,6.9,53,0.00,CLR,,0.00,WeatherDisplay:10.37,2013-03-29 22:13:00,
2013-03-29 18:18:00,52.9,35.7,30.23,WSW,248,6.9,6.9,52,0.00,CLR,,0.00,WeatherDisplay:10.37,2013-03-29 22:18:00,
2013-03-29 18:23:00,52.5,35.8,30.23,WSW,248,5.4,5.4,53,0.00,CLR,,0.00,WeatherDisplay:10.37,2013-03-29 22:23:00,
2013-03-29 18:28:00,52.3,36.6,30.23,WSW,248,2.3,2.3,55,0.00,CLR,,0.00,WeatherDisplay:10.37,2013-03-29 22:28:00,
2013-03-29 18:33:00,52.3,36.1,30.23,SW,225,5.8,5.8,54,0.00,CLR,,0.00,WeatherDisplay:10.37,2013-03-29 22:33:00,
2013-03-29 18:38:00,52.3,35.7,30.23,WSW,248,5.8,5.8,53,0.00,CLR,,0.00,WeatherDisplay:10.37,2013-03-29 22:38:00,
2013-03-29 18:43:00,52.2,36.5,30.23,SW,225,4.6,4.6,55,0.00,CLR,,0.00,WeatherDisplay:10.37,2013-03-29 22:43:00,
2013-03-29 18:48:00,52.0,36.8,30.23,SSW,202,3.5,3.5,56,0.00,CLR,,0.00,WeatherDisplay:10.37,2013-03-29 22:48:00,
2013-03-29 18:53:00,51.6,35.9,30.24,WSW,248,5.8,5.8,55,0.00,CLR,,0.00,WeatherDisplay:10.37,2013-03-29 22:53:00,
2013-03-29 18:58:00,51.4,36.7,30.24,WSW,248,4.6,4.6,57,0.00,CLR,,0.00,WeatherDisplay:10.37,2013-03-29 22:58:00,
2013-03-29 19:03:00,51.3,36.6,30.24,WSW,248,3.5,3.5,57,0.00,CLR,,0.00,WeatherDisplay:10.37,2013-03-29 23:03:00,
2013-03-29 19:08:00,50.9,37.1,30.24,West,270,5.8,5.8,59,0.00,CLR,,0.00,WeatherDisplay:10.37,2013-03-29 23:08:00,
2013-03-29 19:13:00,50.7,36.9,30.24,WSW,248,5.8,5.8,59,0.00,CLR,,0.00,WeatherDisplay:10.37,2013-03-29 23:13:00,
2013-03-29 19:18:00,50.4,36.6,30.24,WSW,248,5.8,5.8,59,0.00,CLR,,0.00,WeatherDisplay:10.37,2013-03-29 23:18:00,
2013-03-29 19:23:00,50.2,37.3,30.24,SSW,202,3.5,3.5,61,0.00,CLR,,0.00,WeatherDisplay:10.37,2013-03-29 23:23:00,
2013-03-29 19:28:00,50.0,36.7,30.24,South,180,3.5,3.5,60,0.00,CLR,,0.00,WeatherDisplay:10.37,2013-03-29 23:28:00,
2013-03-29 19:33:00,49.8,36.9,30.24,SW,225,0.0,0.0,61,0.00,CLR,,0.00,WeatherDisplay:10.37,2013-03-29 23:33:00,
2013-03-29 19:38:00,49.6,37.1,30.24,SW,225,3.5,3.5,62,0.00,CLR,,0.00,WeatherDisplay:10.37,2013-03-29 23:38:00,
2013-03-29 19:43:00,49.5,37.4,30.24,SW,225,4.3,4.3,63,0.00,CLR,,0.00,WeatherDisplay:10.37,2013-03-29 23:43:00,
2013-03-29 19:48:00,49.1,37.0,30.24,SW,225,4.3,4.3,63,0.00,CLR,,0.00,WeatherDisplay:10.37,2013-03-29 23:48:00,
2013-03-29 19:53:00,49.1,37.4,30.24,SW,225,3.5,3.5,64,0.00,CLR,,0.00,WeatherDisplay:10.37,2013-03-29 23:53:00,
2013-03-29 19:58:00,48.9,37.3,30.24,SW,225,3.5,3.5,64,0.00,CLR,,0.00,WeatherDisplay:10.37,2013-03-29 23:58:00,
2013-03-29 20:04:00,48.7,37.8,30.25,SW,225,3.3,0.0,66,0.00,CLR,,0.00,WeatherDisplay:10.37,2013-03-30 00:04:00,
2013-03-29 20:09:00,48.7,37.8,30.25,SW,225,3.5,3.5,66,0.00,CLR,,0.00,WeatherDisplay:10.37,2013-03-30 00:09:00,
2013-03-29 20:14:00,48.6,38.1,30.25,SW,225,0.0,0.0,67,0.00,CLR,,0.00,WeatherDisplay:10.37,2013-03-30 00:14:00,
2013-03-29 20:19:00,48.4,38.3,30.25,SW,225,0.0,0.0,68,0.00,CLR,,0.00,WeatherDisplay:10.37,2013-03-30 00:19:00,
2013-03-29 20:24:00,48.4,38.3,30.25,SW,225,3.5,3.5,68,0.00,CLR,,0.00,WeatherDisplay:10.37,2013-03-30 00:24:00,
2013-03-29 20:29:00,48.4,38.3,30.25,SW,225,3.5,3.5,68,0.00,CLR,,0.00,WeatherDisplay:10.37,2013-03-30 00:29:00,
2013-03-29 20:34:00,48.4,38.3,30.25,SW,225,3.5,3.5,68,0.00,CLR,,0.00,WeatherDisplay:10.37,2013-03-30 00:34:00,
2013-03-29 20:39:00,48.4,38.7,30.25,SW,225,3.3,3.3,69,0.00,CLR,,0.00,WeatherDisplay:10.37,2013-03-30 00:39:00,
2013-03-29 20:44:00,48.4,38.7,30.25,SW,225,3.5,3.5,69,0.00,CLR,,0.00,WeatherDisplay:10.37,2013-03-30 00:44:00,
2013-03-29 20:49:00,48.2,38.9,30.25,SW,225,0.0,0.0,70,0.00,CLR,,0.00,WeatherDisplay:10.37,2013-03-30 00:49:00,
2013-03-29 20:54:00,48.2,38.9,30.25,SW,225,3.5,3.5,70,0.00,CLR,,0.00,WeatherDisplay:10.37,2013-03-30 00:54:00,
2013-03-29 20:59:00,48.2,38.9,30.25,SW,225,3.5,3.5,70,0.00,CLR,,0.00,WeatherDisplay:10.37,2013-03-30 00:59:00,
2013-03-29 21:04:00,48.2,38.9,30.25,SW,225,3.5,3.5,70,0.00,CLR,,0.00,WeatherDisplay:10.37,2013-03-30 01:04:00,
2013-03-29 21:09:00,48.2,38.9,30.25,SSW,202,0.0,0.0,70,0.00,CLR,,0.00,WeatherDisplay:10.37,2013-03-30 01:09:00,
2013-03-29 21:14:00,48.0,38.7,30.22,SSW,202,0.0,-999.0,70,-99.99,,,0.00,Acu-Link.com,2013-03-30 01:14:00,
2013-03-29 21:19:00,48.0,39.0,30.25,SW,225,4.6,4.6,71,0.00,CLR,,0.00,WeatherDisplay:10.37,2013-03-30 01:19:00,
2013-03-29 21:24:00,47.8,38.8,30.25,SW,225,0.0,0.0,71,0.00,CLR,,0.00,WeatherDisplay:10.37,2013-03-30 01:24:00,
2013-03-29 21:29:00,47.8,39.2,30.25,SW,225,3.5,3.5,72,0.00,CLR,,0.00,WeatherDisplay:10.37,2013-03-30 01:29:00,
2013-03-29 21:34:00,47.8,39.2,30.25,SW,225,0.0,0.0,72,0.00,CLR,,0.00,WeatherDisplay:10.37,2013-03-30 01:34:00,
2013-03-29 21:39:00,47.7,39.1,30.25,SW,225,0.0,0.0,72,0.00,CLR,,0.00,WeatherDisplay:10.37,2013-03-30 01:39:00,
2013-03-29 21:44:00,47.5,39.3,30.25,SW,225,0.0,0.0,73,0.00,CLR,,0.00,WeatherDisplay:10.37,2013-03-30 01:44:00,
2013-03-29 21:49:00,47.5,39.3,30.25,SW,225,0.0,0.0,73,0.00,CLR,,0.00,WeatherDisplay:10.37,2013-03-30 01:49:00,
2013-03-29 21:54:00,47.5,39.6,30.26,SW,225,3.5,3.5,74,0.00,CLR,,0.00,WeatherDisplay:10.37,2013-03-30 01:54:00,
2013-03-29 21:59:00,47.5,40.0,30.26,SW,225,0.0,0.0,75,0.00,CLR,,0.00,WeatherDisplay:10.37,2013-03-30 01:59:00,
2013-03-29 22:04:00,47.5,40.0,30.26,SW,225,0.0,0.0,75,0.00,CLR,,0.00,WeatherDisplay:10.37,2013-03-30 02:04:00,
2013-03-29 22:09:00,47.5,40.0,30.26,SW,225,0.0,0.0,75,0.00,CLR,,0.00,WeatherDisplay:10.37,2013-03-30 02:09:00,
2013-03-29 22:14:00,47.3,40.1,30.26,SW,225,0.0,0.0,76,0.00,CLR,,0.00,WeatherDisplay:10.37,2013-03-30 02:14:00,
2013-03-29 22:19:00,47.3,40.1,30.26,SW,225,0.0,0.0,76,0.00,CLR,,0.00,WeatherDisplay:10.37,2013-03-30 02:19:00,
2013-03-29 22:24:00,47.1,39.9,30.26,SW,225,0.0,0.0,76,0.00,CLR,,0.00,WeatherDisplay:10.37,2013-03-30 02:24:00,
2013-03-29 22:29:00,47.1,40.3,30.26,SW,225,0.0,0.0,77,0.00,CLR,,0.00,WeatherDisplay:10.37,2013-03-30 02:29:00,
2013-03-29 22:34:00,46.9,40.1,30.26,SW,225,0.0,0.0,77,0.00,CLR,,0.00,WeatherDisplay:10.37,2013-03-30 02:34:00,
2013-03-29 22:39:00,46.8,40.0,30.26,SW,225,0.0,0.0,77,0.00,CLR,,0.00,WeatherDisplay:10.37,2013-03-30 02:39:00,
2013-03-29 22:44:00,46.8,40.3,30.26,SW,225,3.5,3.5,78,0.00,CLR,,0.00,WeatherDisplay:10.37,2013-03-30 02:44:00,
2013-03-29 22:49:00,46.8,40.3,30.26,SW,225,0.0,0.0,78,0.00,CLR,,0.00,WeatherDisplay:10.37,2013-03-30 02:49:00,
2013-03-29 22:54:00,46.8,40.3,30.26,SW,225,0.0,0.0,78,0.00,CLR,,0.00,WeatherDisplay:10.37,2013-03-30 02:54:00,
2013-03-29 22:59:00,46.6,40.4,30.26,SW,225,0.0,0.0,79,0.00,CLR,,0.00,WeatherDisplay:10.37,2013-03-30 02:59:00,
2013-03-29 23:04:00,46.6,40.4,30.26,SW,225,0.0,0.0,79,0.00,CLR,,0.00,WeatherDisplay:10.37,2013-03-30 03:04:00,
2013-03-29 23:09:00,46.4,40.6,30.26,SW,225,0.0,0.0,80,0.00,CLR,,0.00,WeatherDisplay:10.37,2013-03-30 03:09:00,
2013-03-29 23:14:00,46.4,40.9,30.26,SW,225,0.0,0.0,81,0.00,CLR,,0.00,WeatherDisplay:10.37,2013-03-30 03:14:00,
2013-03-29 23:19:00,46.4,40.9,30.26,SW,225,3.5,3.5,81,0.00,CLR,,0.00,WeatherDisplay:10.37,2013-03-30 03:19:00,
2013-03-29 23:24:00,46.4,40.9,30.26,SW,225,0.0,0.0,81,0.00,CLR,,0.00,WeatherDisplay:10.37,2013-03-30 03:24:00,
2013-03-29 23:29:00,46.4,41.2,30.26,SW,225,2.3,0.0,82,0.00,CLR,,0.00,WeatherDisplay:10.37,2013-03-30 03:29:00,
2013-03-29 23:34:00,46.4,41.2,30.26,SW,225,0.0,0.0,82,0.00,CLR,,0.00,WeatherDisplay:10.37,2013-03-30 03:34:00,
2013-03-29 23:39:00,46.4,41.2,30.26,SW,225,0.0,0.0,82,0.00,CLR,,0.00,WeatherDisplay:10.37,2013-03-30 03:39:00,
2013-03-29 23:44:00,46.4,41.2,30.26,SW,225,0.0,0.0,82,0.00,CLR,,0.00,WeatherDisplay:10.37,2013-03-30 03:44:00,
2013-03-29 23:49:00,46.2,40.7,30.26,SW,225,0.0,0.0,81,0.00,CLR,,0.00,WeatherDisplay:10.37,2013-03-30 03:49:00,
2013-03-29 23:54:00,46.2,40.7,30.26,SW,225,0.0,0.0,81,0.00,CLR,,0.00,WeatherDisplay:10.37,2013-03-30 03:54:00,
2013-03-29 23:59:00,46.0,40.8,30.26,SW,225,0.0,0.0,82,0.00,CLR,,0.00,WeatherDisplay:10.37,2013-03-30 03:59:00,